Alps Wideshine — 9HA2472 — position and weather

sailwx.info

Track history (hours):
 
Tides and Currents Weather Stations Pressure Air Temp Water Temp Dewpoint Dewpoint Depression Visibility Wind Speed Wind Dir Waves Ship Positions

Alps Wideshine

Last reported at 2015-Jun-04 03:33 UTC. Time now 2015-Jul-04 20:43 UTC.
Position N 25°57' W 079°33'.
Warning: this ship's position is 30 days out of date.

Length 107 m; draft 5.4 m.

Type: Tanker. MMSI: 248694000.

Date/timePositionNaut miles runAvg speedWind from/ knotsBaromVisibWave heightAir tempDewpointWater temp
2015-Jun-04 03:33N 25°57' W 079°33'1010.2
2015-Jun-04 02:33N 26°07' W 079°31'52511.3
2015-Jun-02 04:06N 34°12' W 075°40'22910.5
2015-Jun-01 06:23N 37°52' W 074°23'5911.6
2015-Jun-01 01:17N 38°50' W 074°05'811.1
2015-Jun-01 00:33N 38°58' W 074°04'1110.9
2015-May-31 23:33N 39°09' W 074°01'1110.7
2015-May-31 22:33N 39°19' W 073°58'1110.5
2015-May-31 21:32N 39°30' W 073°55'1010.4
2015-May-31 20:32N 39°40' W 073°53'1010.2
2015-May-31 19:33N 39°50' W 073°52'1110.3
2015-May-31 18:29N 40°01' W 073°51'6 6.0
2015-May-31 17:31N 40°06' W 073°50'6 6.1
2015-May-31 16:33N 40°12' W 073°49'1110.8
2015-May-31 15:33N 40°23' W 073°48'9 8.9
2015-May-31 14:33N 40°30' W 073°56'1111.0
2015-May-31 13:33N 40°39' W 074°04'6 0.3
2015-May-30 19:26N 40°38' W 074°12'0 0.0
2015-May-30 10:33N 40°38' W 074°12'6 6.0
2015-May-30 09:33N 40°39' W 074°04'8 7.8
2015-May-30 08:33N 40°31' W 074°00'1110.9
2015-May-30 07:33N 40°27' W 073°48'7 6.6
2015-May-30 06:33N 40°20' W 073°47'1212.0
2015-May-30 05:33N 40°08' W 073°44'1211.7
2015-May-30 04:33N 39°57' W 073°42'1211.6
2015-May-30 03:33N 39°45' W 073°40'1111.3
2015-May-30 02:33N 39°34' W 073°41'1 0.8
2015-May-30 01:29N 39°33' W 073°40'0 0.1
2015-May-30 00:32N 39°33' W 073°40'0 0.1
2015-May-29 23:33N 39°33' W 073°41'0 0.1
2015-May-29 22:33N 39°33' W 073°40'9 7.6
2015-May-29 21:25N 39°24' W 073°40'1011.4
2015-May-29 20:33N 39°14' W 073°41'2511.6
2015-May-29 18:21N 38°49' W 073°42'911.5
2015-May-29 17:33N 38°39' W 073°42'  
Track history (hours):
 
Tides and Currents Weather Stations Pressure Air Temp Water Temp Dewpoint Dewpoint Depression Visibility Wind Speed Wind Dir Waves Ship Positions

Alps Wideshine

Last reported at 2015-Jun-04 03:33 UTC. Time now 2015-Jul-04 20:43 UTC.
Position N 25°57' W 079°33'.
Warning: this ship's position is 30 days out of date.

Length 107 m; draft 5.4 m.

Type: Tanker. MMSI: 248694000.

Date/timePositionNaut miles runAvg speedWind from/ knotsBaromVisibWave heightAir tempDewpointWater temp
2015-Jun-04 03:33N 25°57' W 079°33'1010.2
2015-Jun-04 02:33N 26°07' W 079°31'52511.3
2015-Jun-02 04:06N 34°12' W 075°40'22910.5
2015-Jun-01 06:23N 37°52' W 074°23'5911.6
2015-Jun-01 01:17N 38°50' W 074°05'811.1
2015-Jun-01 00:33N 38°58' W 074°04'1110.9
2015-May-31 23:33N 39°09' W 074°01'1110.7
2015-May-31 22:33N 39°19' W 073°58'1110.5
2015-May-31 21:32N 39°30' W 073°55'1010.4
2015-May-31 20:32N 39°40' W 073°53'1010.2
2015-May-31 19:33N 39°50' W 073°52'1110.3
2015-May-31 18:29N 40°01' W 073°51'6 6.0
2015-May-31 17:31N 40°06' W 073°50'6 6.1
2015-May-31 16:33N 40°12' W 073°49'1110.8
2015-May-31 15:33N 40°23' W 073°48'9 8.9
2015-May-31 14:33N 40°30' W 073°56'1111.0
2015-May-31 13:33N 40°39' W 074°04'6 0.3
2015-May-30 19:26N 40°38' W 074°12'0 0.0
2015-May-30 10:33N 40°38' W 074°12'6 6.0
2015-May-30 09:33N 40°39' W 074°04'8 7.8
2015-May-30 08:33N 40°31' W 074°00'1110.9
2015-May-30 07:33N 40°27' W 073°48'7 6.6
2015-May-30 06:33N 40°20' W 073°47'1212.0
2015-May-30 05:33N 40°08' W 073°44'1211.7
2015-May-30 04:33N 39°57' W 073°42'1211.6
2015-May-30 03:33N 39°45' W 073°40'1111.3
2015-May-30 02:33N 39°34' W 073°41'1 0.8
2015-May-30 01:29N 39°33' W 073°40'0 0.1
2015-May-30 00:32N 39°33' W 073°40'0 0.1
2015-May-29 23:33N 39°33' W 073°41'0 0.1
2015-May-29 22:33N 39°33' W 073°40'9 7.6
2015-May-29 21:25N 39°24' W 073°40'1011.4
2015-May-29 20:33N 39°14' W 073°41'2511.6
2015-May-29 18:21N 38°49' W 073°42'911.5
2015-May-29 17:33N 38°39' W 073°42'  

Dump ship's entire track history